createdAt,value
2022-12-31T00:01:30.648Z,1.00
2022-12-31T00:03:57.574Z,2.05
2022-12-31T00:06:25.348Z,4.13
2022-12-31T00:08:53.461Z,1.75
2022-12-31T00:11:20.457Z,0.63
2022-12-31T00:13:47.918Z,1.92
2022-12-31T00:16:18.591Z,1.40
2022-12-31T00:18:46.597Z,1.23
2022-12-31T00:21:13.764Z,1.48
2022-12-31T00:23:40.401Z,1.73
2022-12-31T00:26:11.680Z,0.80
2022-12-31T00:28:38.773Z,1.35
2022-12-31T00:31:14.419Z,1.02
2022-12-31T00:33:41.236Z,1.08
2022-12-31T00:36:11.075Z,1.33
2022-12-31T00:38:38.399Z,2.75
2022-12-31T00:41:05.874Z,0.88
2022-12-31T00:43:32.616Z,1.58
2022-12-31T00:45:59.867Z,2.35
2022-12-31T00:48:26.597Z,4.82
2022-12-31T00:50:54.423Z,1.48
2022-12-31T00:53:21.233Z,4.97
2022-12-31T00:55:48.068Z,3.10
2022-12-31T00:58:14.754Z,2.55
2022-12-31T01:00:41.407Z,2.42
2022-12-31T01:03:08.327Z,1.08
2022-12-31T01:05:36.156Z,1.67
2022-12-31T01:08:02.955Z,1.40
2022-12-31T01:10:48.154Z,4.80
2022-12-31T01:13:14.655Z,0.82
2022-12-31T01:15:41.203Z,2.55
2022-12-31T01:18:08.594Z,7.45
2022-12-31T01:20:39.588Z,5.90
2022-12-31T01:23:06.810Z,0.85
2022-12-31T01:25:37.616Z,0.77
2022-12-31T01:28:05.018Z,1.15
2022-12-31T01:30:31.941Z,0.60
2022-12-31T01:32:58.800Z,1.20
2022-12-31T01:35:25.335Z,2.50
2022-12-31T01:37:51.837Z,0.30
2022-12-31T01:40:18.368Z,1.63
2022-12-31T01:42:45.085Z,0.20
2022-12-31T01:45:13.295Z,0.20
2022-12-31T01:47:42.818Z,1.95
2022-12-31T01:50:29.300Z,1.02
2022-12-31T01:52:59.247Z,0.22
2022-12-31T01:55:25.648Z,0.20
2022-12-31T01:57:57.369Z,1.08
2022-12-31T02:00:23.946Z,0.20
2022-12-31T02:02:50.928Z,1.15
2022-12-31T02:05:23.814Z,0.10
2022-12-31T02:07:50.943Z,0.10
2022-12-31T02:10:17.593Z,0.13
2022-12-31T02:12:44.124Z,0.10
2022-12-31T02:15:10.843Z,0.10
2022-12-31T02:17:45.240Z,1.55
2022-12-31T02:20:30.216Z,0.10
2022-12-31T02:23:31.593Z,0.43
2022-12-31T02:26:20.845Z,0.10
2022-12-31T02:29:17.272Z,1.48
2022-12-31T02:31:53.841Z,0.60
2022-12-31T02:34:35.782Z,0.20
2022-12-31T02:37:04.988Z,0.40
2022-12-31T02:39:32.356Z,0.55
2022-12-31T02:42:00.049Z,0.25
2022-12-31T02:44:34.542Z,0.40
2022-12-31T02:47:10.436Z,0.40
2022-12-31T02:49:42.675Z,0.45
2022-12-31T02:52:21.875Z,1.10
2022-12-31T02:54:54.283Z,0.35
2022-12-31T02:57:30.830Z,0.25
2022-12-31T03:00:19.999Z,3.47
2022-12-31T03:02:47.464Z,0.40
2022-12-31T03:05:15.811Z,1.25
2022-12-31T03:07:42.915Z,0.20
2022-12-31T03:10:09.643Z,1.77
2022-12-31T03:12:48.810Z,0.22
2022-12-31T03:15:24.335Z,0.90
2022-12-31T03:18:47.145Z,0.20
2022-12-31T03:21:32.296Z,0.20
2022-12-31T03:24:17.710Z,1.10
2022-12-31T03:26:44.250Z,0.65
2022-12-31T03:29:10.765Z,0.80
2022-12-31T03:31:37.287Z,0.90
2022-12-31T03:34:03.881Z,0.80
2022-12-31T03:36:30.429Z,2.40
2022-12-31T03:38:57.690Z,0.80
2022-12-31T03:41:24.179Z,2.75
2022-12-31T03:43:50.677Z,1.48
2022-12-31T03:46:17.212Z,1.17
2022-12-31T03:48:43.716Z,0.32
2022-12-31T03:51:10.215Z,3.20
2022-12-31T03:53:36.748Z,1.63
2022-12-31T03:56:03.316Z,1.85
2022-12-31T03:58:29.861Z,0.73
2022-12-31T04:00:56.585Z,1.30
2022-12-31T04:03:23.329Z,0.85
2022-12-31T04:05:56.079Z,1.70
2022-12-31T04:08:22.990Z,0.55
2022-12-31T04:10:49.528Z,0.63
2022-12-31T04:13:16.071Z,1.70
2022-12-31T04:15:42.572Z,0.30
2022-12-31T04:18:09.178Z,1.58
2022-12-31T04:20:35.649Z,2.08
2022-12-31T04:23:02.183Z,0.30
2022-12-31T04:25:28.673Z,2.78
2022-12-31T04:27:55.378Z,0.47
2022-12-31T04:30:21.912Z,1.10
2022-12-31T04:32:48.422Z,6.20
2022-12-31T04:35:14.968Z,0.93
2022-12-31T04:37:41.456Z,2.30
2022-12-31T04:40:08.986Z,2.05
2022-12-31T04:42:35.992Z,1.20
2022-12-31T04:45:02.596Z,0.60
2022-12-31T04:47:29.639Z,1.35
2022-12-31T04:49:56.175Z,2.10
2022-12-31T04:52:22.817Z,2.70
2022-12-31T04:54:49.378Z,1.10
2022-12-31T04:57:15.890Z,0.40
2022-12-31T04:59:42.418Z,1.27
2022-12-31T05:02:09.405Z,2.60
2022-12-31T05:04:36.075Z,2.35
2022-12-31T05:07:02.619Z,2.53
2022-12-31T05:09:29.653Z,2.30
2022-12-31T05:11:56.336Z,1.13
2022-12-31T05:14:22.812Z,1.27
2022-12-31T05:16:49.372Z,3.05
2022-12-31T05:19:16.214Z,2.17
2022-12-31T05:21:42.784Z,3.47
2022-12-31T05:24:09.340Z,3.75
2022-12-31T05:26:35.850Z,1.65
2022-12-31T05:29:02.349Z,2.25
2022-12-31T05:31:28.844Z,0.77
2022-12-31T05:33:55.356Z,2.45
2022-12-31T05:36:21.843Z,2.33
2022-12-31T05:38:48.415Z,1.48
2022-12-31T05:41:14.940Z,2.97
2022-12-31T05:43:41.459Z,5.78
2022-12-31T05:46:08.235Z,2.05
2022-12-31T05:48:34.772Z,3.97
2022-12-31T05:51:01.320Z,2.60
2022-12-31T05:53:27.822Z,1.23
2022-12-31T05:55:54.280Z,5.47
2022-12-31T05:58:20.761Z,1.88
2022-12-31T06:00:47.274Z,3.55
2022-12-31T06:03:14.075Z,1.95
2022-12-31T06:05:43.623Z,1.85
2022-12-31T06:08:11.386Z,3.88
2022-12-31T06:10:38.824Z,4.53
2022-12-31T06:13:05.451Z,2.40
2022-12-31T06:15:32.111Z,2.05
2022-12-31T06:17:58.670Z,4.53
2022-12-31T06:20:25.237Z,2.88
2022-12-31T06:22:51.793Z,2.10
2022-12-31T06:25:18.367Z,2.92
2022-12-31T06:27:44.908Z,2.72
2022-12-31T06:30:11.947Z,2.47
2022-12-31T06:32:39.323Z,5.22
2022-12-31T06:35:06.645Z,0.70
2022-12-31T06:37:33.187Z,5.32
2022-12-31T06:39:59.802Z,4.85
2022-12-31T06:42:30.718Z,2.55
2022-12-31T06:44:58.333Z,4.88
2022-12-31T06:47:25.634Z,2.50
2022-12-31T06:49:52.445Z,3.63
2022-12-31T06:52:19.318Z,4.65
2022-12-31T06:54:46.138Z,2.17
2022-12-31T06:57:13.091Z,4.57
2022-12-31T06:59:41.535Z,3.67
2022-12-31T07:02:13.279Z,2.28
2022-12-31T07:04:45.575Z,3.92
2022-12-31T07:07:22.520Z,3.33
2022-12-31T07:10:03.206Z,3.40
2022-12-31T07:13:04.578Z,4.95
2022-12-31T07:15:42.031Z,5.38
2022-12-31T07:18:53.522Z,1.58
2022-12-31T07:21:31.712Z,2.55
2022-12-31T07:23:58.503Z,3.10
2022-12-31T07:26:55.968Z,4.05
2022-12-31T07:29:42.185Z,4.18
2022-12-31T07:32:11.645Z,4.00
2022-12-31T07:34:51.332Z,3.58
2022-12-31T07:37:27.994Z,5.25
2022-12-31T07:40:01.383Z,3.55
2022-12-31T07:42:34.592Z,4.32
2022-12-31T07:45:04.321Z,4.93
2022-12-31T07:47:31.245Z,4.35
2022-12-31T07:49:58.160Z,5.93
2022-12-31T07:52:25.189Z,2.85
2022-12-31T07:54:51.968Z,3.47
2022-12-31T07:57:19.952Z,2.45
2022-12-31T07:59:59.003Z,2.35
2022-12-31T08:02:31.393Z,6.18
2022-12-31T08:05:06.567Z,2.25
2022-12-31T08:07:40.489Z,2.22
2022-12-31T08:10:18.450Z,3.00
2022-12-31T08:12:47.322Z,2.05
2022-12-31T08:15:16.473Z,5.22
2022-12-31T08:17:43.597Z,4.25
2022-12-31T08:20:17.190Z,1.80
2022-12-31T08:23:06.327Z,4.80
2022-12-31T08:25:55.762Z,3.22
2022-12-31T08:28:28.021Z,5.22
2022-12-31T08:31:17.134Z,3.65
2022-12-31T08:34:21.218Z,5.10
2022-12-31T08:37:24.503Z,5.97
2022-12-31T08:39:53.778Z,2.53
2022-12-31T08:42:39.293Z,3.90
2022-12-31T08:45:11.471Z,5.13
2022-12-31T08:48:08.574Z,3.25
2022-12-31T08:50:35.369Z,4.28
2022-12-31T08:53:02.340Z,3.45
2022-12-31T08:55:29.233Z,1.85
2022-12-31T08:58:26.214Z,4.25
2022-12-31T09:00:56.396Z,3.20
2022-12-31T09:03:44.929Z,2.00
2022-12-31T09:06:29.886Z,3.22
2022-12-31T09:09:33.744Z,2.40
2022-12-31T09:12:06.060Z,5.72
2022-12-31T09:14:45.060Z,3.42
2022-12-31T09:17:37.888Z,4.78
2022-12-31T09:20:05.130Z,2.10
2022-12-31T09:22:32.185Z,2.78
2022-12-31T09:24:58.888Z,3.45
2022-12-31T09:27:36.380Z,4.47
2022-12-31T09:30:06.833Z,3.90
2022-12-31T09:33:00.795Z,5.80
2022-12-31T09:35:43.070Z,3.45
2022-12-31T09:38:19.940Z,4.97
2022-12-31T09:41:02.607Z,2.33
2022-12-31T09:43:54.607Z,4.55
2022-12-31T09:46:45.405Z,4.22
2022-12-31T09:49:25.644Z,7.88
2022-12-31T09:52:04.464Z,1.73
2022-12-31T09:54:39.983Z,5.63
2022-12-31T09:57:39.294Z,6.18
2022-12-31T10:00:24.198Z,4.68
2022-12-31T10:03:08.787Z,7.72
2022-12-31T10:05:50.336Z,3.15
2022-12-31T10:11:19.266Z,5.45
2022-12-31T10:13:53.717Z,5.60
2022-12-31T10:16:36.864Z,2.05
2022-12-31T10:19:41.548Z,3.72
2022-12-31T10:22:39.252Z,3.67
2022-12-31T10:25:37.926Z,3.58
2022-12-31T10:28:29.522Z,4.68
2022-12-31T10:31:39.146Z,6.13
2022-12-31T10:34:39.362Z,2.85
2022-12-31T10:37:10.407Z,5.63
2022-12-31T10:40:00.201Z,3.22
2022-12-31T10:42:48.449Z,4.32
2022-12-31T10:45:33.463Z,2.92
2022-12-31T10:48:18.310Z,6.18
2022-12-31T10:51:15.228Z,4.85
2022-12-31T10:54:12.965Z,4.22
2022-12-31T10:56:39.556Z,4.97
2022-12-31T10:59:25.404Z,8.60
2022-12-31T11:02:16.774Z,2.60
2022-12-31T11:05:20.828Z,5.97
2022-12-31T11:07:59.233Z,3.03
2022-12-31T11:10:30.561Z,8.15
2022-12-31T11:13:02.877Z,6.07
2022-12-31T11:15:35.025Z,6.65
2022-12-31T11:18:38.540Z,5.13
2022-12-31T11:21:42.322Z,6.35
2022-12-31T11:24:25.311Z,5.70
2022-12-31T11:26:51.776Z,2.95
2022-12-31T11:29:29.036Z,3.13
2022-12-31T11:32:01.369Z,4.65
2022-12-31T11:34:54.947Z,3.60
2022-12-31T11:37:49.447Z,5.15
2022-12-31T11:40:21.675Z,5.95
2022-12-31T11:43:04.576Z,4.25
2022-12-31T11:45:55.592Z,5.88
2022-12-31T11:48:41.515Z,5.97
2022-12-31T11:51:14.055Z,5.40
2022-12-31T11:53:58.602Z,5.32
2022-12-31T11:56:28.353Z,8.82
2022-12-31T11:58:56.030Z,6.15
2022-12-31T12:01:27.324Z,7.00
2022-12-31T12:06:26.831Z,6.20
2022-12-31T12:08:55.990Z,4.90
2022-12-31T12:11:27.810Z,3.20
2022-12-31T12:13:54.371Z,5.47
2022-12-31T12:16:25.123Z,4.15
2022-12-31T12:19:04.064Z,4.50
2022-12-31T12:21:30.588Z,2.90
2022-12-31T12:24:06.435Z,7.35
2022-12-31T12:26:34.813Z,8.45
2022-12-31T12:29:34.616Z,7.90
2022-12-31T12:32:05.901Z,6.70
2022-12-31T12:34:37.194Z,8.48
2022-12-31T12:39:32.552Z,3.85
2022-12-31T12:42:04.583Z,4.57
2022-12-31T12:44:31.659Z,4.25
2022-12-31T12:46:58.677Z,6.18
2022-12-31T12:49:40.194Z,5.07
2022-12-31T12:55:11.414Z,3.35
2022-12-31T12:57:46.808Z,5.60
2022-12-31T13:00:19.576Z,4.28
2022-12-31T13:03:20.049Z,4.13
2022-12-31T13:06:02.802Z,5.50
2022-12-31T13:08:38.677Z,7.60
2022-12-31T13:11:35.856Z,5.97
2022-12-31T13:14:17.240Z,6.68
2022-12-31T13:16:49.428Z,4.80
2022-12-31T13:19:41.826Z,5.10
2022-12-31T13:22:15.886Z,6.20
2022-12-31T13:25:06.387Z,5.50
2022-12-31T13:28:00.046Z,4.35
2022-12-31T13:30:32.737Z,7.80
2022-12-31T13:33:02.392Z,2.10
2022-12-31T13:35:33.795Z,5.65
2022-12-31T13:40:57.051Z,3.75
2022-12-31T13:43:45.797Z,6.43
2022-12-31T13:46:21.217Z,4.53
2022-12-31T13:48:53.599Z,7.65
2022-12-31T13:51:35.122Z,7.95
2022-12-31T13:56:35.866Z,3.25
2022-12-31T13:59:13.474Z,9.07
2022-12-31T14:01:49.546Z,13.90
2022-12-31T14:04:19.407Z,6.43
2022-12-31T14:06:55.465Z,7.15
2022-12-31T14:09:29.215Z,14.18
2022-12-31T14:12:17.843Z,7.88
2022-12-31T14:14:51.212Z,5.95
2022-12-31T14:17:39.065Z,4.20
2022-12-31T14:20:29.351Z,8.35
2022-12-31T14:23:07.981Z,9.00
2022-12-31T14:25:54.515Z,5.68
2022-12-31T14:28:34.793Z,5.47
2022-12-31T14:31:27.690Z,8.40
2022-12-31T14:34:12.134Z,7.65
2022-12-31T14:36:58.524Z,4.80
2022-12-31T14:39:28.458Z,11.90
2022-12-31T14:42:12.557Z,7.28
2022-12-31T14:44:45.428Z,10.77
2022-12-31T14:47:29.980Z,10.95
2022-12-31T14:50:18.347Z,7.07
2022-12-31T14:52:52.326Z,9.93
2022-12-31T14:55:23.334Z,6.30
2022-12-31T14:58:26.500Z,7.57
2022-12-31T15:00:39.983Z,7.95
2022-12-31T15:03:23.256Z,7.28
2022-12-31T15:05:55.252Z,8.88
2022-12-31T15:08:31.811Z,6.00
2022-12-31T15:11:13.215Z,12.23
2022-12-31T15:14:00.912Z,10.68
2022-12-31T15:16:46.181Z,6.00
2022-12-31T15:19:18.620Z,7.25
2022-12-31T15:21:53.002Z,3.58
2022-12-31T15:24:27.579Z,9.70
2022-12-31T15:26:56.725Z,7.50
2022-12-31T15:29:32.365Z,8.10
2022-12-31T15:32:01.613Z,10.15
2022-12-31T15:34:34.653Z,7.90
2022-12-31T15:37:03.908Z,4.68
2022-12-31T15:39:39.296Z,4.20
2022-12-31T15:42:37.798Z,5.15
2022-12-31T15:45:07.975Z,6.78
2022-12-31T15:47:40.393Z,8.40
2022-12-31T15:50:14.484Z,4.57
2022-12-31T15:52:47.938Z,6.13
2022-12-31T15:55:25.147Z,3.22
2022-12-31T15:57:54.406Z,13.52
2022-12-31T16:00:22.729Z,8.20
2022-12-31T16:02:52.870Z,6.43
2022-12-31T16:05:25.304Z,6.22
2022-12-31T16:07:57.326Z,9.25
2022-12-31T16:10:27.492Z,5.65
2022-12-31T16:12:55.481Z,7.60
2022-12-31T16:15:27.644Z,4.70
2022-12-31T16:18:10.691Z,5.37
2022-12-31T16:20:42.322Z,4.28
2022-12-31T16:23:23.555Z,3.03
2022-12-31T16:25:51.666Z,7.90
2022-12-31T16:28:20.246Z,6.43
2022-12-31T16:31:02.076Z,7.82
2022-12-31T16:33:29.189Z,6.18
2022-12-31T16:35:57.683Z,8.75
2022-12-31T16:38:32.657Z,7.80
2022-12-31T16:41:02.020Z,3.90
2022-12-31T16:43:40.890Z,3.65
2022-12-31T16:46:14.016Z,5.80
2022-12-31T16:48:41.306Z,4.07
2022-12-31T16:51:15.679Z,12.30
2022-12-31T16:53:42.227Z,10.35
2022-12-31T16:56:09.297Z,4.32
2022-12-31T16:58:39.930Z,7.63
2022-12-31T17:01:14.361Z,3.15
2022-12-31T17:03:48.002Z,3.08
2022-12-31T17:06:17.005Z,10.20
2022-12-31T17:09:04.493Z,3.15
2022-12-31T17:11:31.209Z,7.70
2022-12-31T17:14:13.939Z,3.65
2022-12-31T17:16:44.658Z,5.25
2022-12-31T17:19:46.093Z,5.78
2022-12-31T17:22:36.907Z,5.47
2022-12-31T17:25:07.946Z,6.82
2022-12-31T17:27:35.991Z,10.68
2022-12-31T17:30:20.984Z,7.25
2022-12-31T17:32:50.005Z,5.82
2022-12-31T17:35:42.367Z,7.13
2022-12-31T17:38:17.993Z,7.57
2022-12-31T17:40:53.196Z,4.07
2022-12-31T17:43:21.702Z,3.70
2022-12-31T17:45:52.922Z,7.95
2022-12-31T17:48:20.134Z,6.85
2022-12-31T17:50:47.512Z,6.75
2022-12-31T17:53:14.522Z,8.45
2022-12-31T17:55:42.157Z,9.60
2022-12-31T17:58:23.568Z,5.03
2022-12-31T18:00:55.753Z,5.43
2022-12-31T18:03:22.510Z,4.97
2022-12-31T18:05:49.499Z,8.90
2022-12-31T18:08:16.217Z,11.00
2022-12-31T18:10:44.134Z,9.43
2022-12-31T18:13:14.692Z,6.80
2022-12-31T18:15:41.284Z,9.60
2022-12-31T18:18:35.725Z,7.47
2022-12-31T18:21:04.590Z,8.13
2022-12-31T18:28:50.177Z,8.00
2022-12-31T18:31:19.666Z,15.02
2022-12-31T18:33:47.197Z,3.88
2022-12-31T18:36:15.467Z,12.32
2022-12-31T18:38:42.171Z,4.80
2022-12-31T18:41:17.091Z,8.27
2022-12-31T18:43:43.579Z,11.27
2022-12-31T18:46:14.074Z,10.10
2022-12-31T18:48:41.427Z,11.15
2022-12-31T18:51:13.934Z,11.90
2022-12-31T18:53:40.480Z,10.15
2022-12-31T18:56:12.102Z,5.32
2022-12-31T18:58:38.918Z,6.10
2022-12-31T19:01:05.713Z,6.90
2022-12-31T19:03:32.382Z,8.13
2022-12-31T19:05:58.965Z,12.07
2022-12-31T19:08:25.464Z,5.13
2022-12-31T19:10:52.558Z,9.27
2022-12-31T19:13:20.547Z,9.43
2022-12-31T19:15:52.091Z,10.60
2022-12-31T19:18:19.276Z,4.85
2022-12-31T19:20:46.106Z,9.18
2022-12-31T19:23:18.054Z,7.80
2022-12-31T19:25:46.387Z,8.40
2022-12-31T19:28:21.609Z,11.63
2022-12-31T19:30:48.201Z,10.73
2022-12-31T19:33:15.395Z,7.80
2022-12-31T19:35:42.632Z,9.95
2022-12-31T19:38:16.904Z,12.32
2022-12-31T19:40:43.572Z,10.30
2022-12-31T19:43:14.451Z,9.60
2022-12-31T19:45:42.627Z,11.32
2022-12-31T19:48:13.623Z,11.30
2022-12-31T19:50:45.928Z,15.70
2022-12-31T19:53:20.852Z,17.17
2022-12-31T19:55:48.443Z,17.92
2022-12-31T19:58:20.759Z,13.50
2022-12-31T20:00:55.569Z,12.77
2022-12-31T20:03:25.594Z,8.82
2022-12-31T20:06:09.553Z,12.63
2022-12-31T20:08:37.453Z,10.55
2022-12-31T20:11:11.558Z,13.32
2022-12-31T20:13:38.887Z,8.88
2022-12-31T20:16:10.317Z,10.25
2022-12-31T20:21:04.560Z,16.98
2022-12-31T20:23:34.851Z,12.48
2022-12-31T20:26:01.938Z,12.40
2022-12-31T20:28:28.466Z,14.55
2022-12-31T20:30:55.037Z,8.85
2022-12-31T20:33:22.387Z,12.68
2022-12-31T20:35:49.021Z,9.35
2022-12-31T20:38:15.555Z,10.25
2022-12-31T20:40:46.716Z,9.35
2022-12-31T20:43:13.941Z,9.52
2022-12-31T20:45:41.401Z,9.65
2022-12-31T20:48:08.149Z,12.45
2022-12-31T20:50:34.717Z,13.70
2022-12-31T20:53:01.978Z,10.05
2022-12-31T20:55:30.630Z,6.47
2022-12-31T20:57:57.193Z,8.88
2022-12-31T21:00:23.737Z,11.18
2022-12-31T21:02:59.012Z,9.23
2022-12-31T21:05:31.025Z,15.68
2022-12-31T21:07:57.686Z,13.80
2022-12-31T21:10:25.129Z,8.43
2022-12-31T21:12:54.422Z,10.35
2022-12-31T21:15:21.719Z,14.68
2022-12-31T21:17:48.313Z,14.10
2022-12-31T21:20:15.015Z,12.88
2022-12-31T21:22:41.595Z,9.20
2022-12-31T21:25:09.346Z,13.60
2022-12-31T21:27:35.959Z,9.63
2022-12-31T21:30:18.325Z,10.95
2022-12-31T21:32:48.069Z,12.45
2022-12-31T21:35:42.173Z,11.35
2022-12-31T21:38:05.679Z,10.65
2022-12-31T21:40:32.787Z,19.13
2022-12-31T21:42:59.329Z,10.30
2022-12-31T21:45:25.956Z,6.50
2022-12-31T21:48:10.865Z,17.52
2022-12-31T21:50:37.458Z,15.27
2022-12-31T21:53:04.018Z,13.75
2022-12-31T21:55:49.458Z,13.65
2022-12-31T21:58:31.764Z,12.88
2022-12-31T22:01:17.550Z,19.38
2022-12-31T22:03:44.608Z,11.02
2022-12-31T22:06:22.147Z,14.40
2022-12-31T22:08:54.011Z,11.77
2022-12-31T22:11:22.257Z,15.82
2022-12-31T22:13:49.369Z,11.18
2022-12-31T22:16:17.052Z,8.55
2022-12-31T22:18:44.159Z,20.52
2022-12-31T22:21:19.487Z,7.32
2022-12-31T22:23:51.873Z,8.82
2022-12-31T22:26:21.904Z,21.50
2022-12-31T22:28:48.500Z,9.98
2022-12-31T22:31:20.549Z,8.50
2022-12-31T22:33:47.241Z,10.43
2022-12-31T22:36:16.306Z,14.32
2022-12-31T22:38:43.473Z,19.95
2022-12-31T22:41:12.757Z,13.45
2022-12-31T22:43:41.688Z,11.80
2022-12-31T22:46:12.315Z,14.70
2022-12-31T22:48:39.184Z,6.35
2022-12-31T22:51:06.508Z,9.10
2022-12-31T22:53:33.423Z,11.57
2022-12-31T22:56:00.169Z,11.57
2022-12-31T22:58:26.880Z,11.88
2022-12-31T23:00:53.438Z,10.23
2022-12-31T23:03:20.118Z,12.00
2022-12-31T23:05:50.063Z,18.85
2022-12-31T23:08:22.837Z,24.33
2022-12-31T23:11:05.210Z,31.95
2022-12-31T23:13:58.410Z,21.25
2022-12-31T23:16:45.269Z,36.85
2022-12-31T23:19:31.296Z,37.90
2022-12-31T23:22:16.837Z,30.77
2022-12-31T23:24:43.412Z,26.48
2022-12-31T23:27:10.872Z,32.28
2022-12-31T23:29:46.674Z,32.05
2022-12-31T23:32:15.807Z,26.02
2022-12-31T23:34:43.108Z,27.58
2022-12-31T23:37:09.872Z,25.48
2022-12-31T23:39:36.405Z,28.88
2022-12-31T23:42:03.004Z,22.75
2022-12-31T23:44:29.624Z,20.02
2022-12-31T23:46:56.705Z,23.50
2022-12-31T23:49:23.396Z,25.67
2022-12-31T23:51:49.914Z,25.23
2022-12-31T23:54:17.724Z,17.10
2022-12-31T23:56:45.125Z,17.70
2022-12-31T23:59:12.764Z,19.77
